Time;durP1;ratioP1;P1;durP2;ratioP2;P2;SDS_P1;SDS_P2;PMS_P1;PMS_P2;Temp;Humidity;BMP_temperature;BMP_pressure;BME280_temperature;BME280_humidity;BME280_pressure;Samples;Min_cycle;Max_cycle;Signal;HPM_P1;HPM_P2
2022/01/09 00:01:15;;;;;;;5.05;1.30;;;6.30;99.90;;;;;;6281788;22;20003;-73
2022/01/09 00:03:40;;;;;;;10.25;1.52;;;6.40;99.90;;;;;;6282464;22;19999;-74
2022/01/09 00:06:06;;;;;;;9.48;0.90;;;6.50;99.90;;;;;;6308883;22;20092;-73
2022/01/09 00:08:31;;;;;;;13.93;0.73;;;6.50;99.90;;;;;;6281490;22;20007;-73
2022/01/09 00:10:57;;;;;;;3.88;0.60;;;6.50;99.90;;;;;;6308814;22;20331;-74
2022/01/09 00:13:22;;;;;;;6.93;0.43;;;6.60;99.90;;;;;;6308838;22;20000;-74
2022/01/09 00:15:48;;;;;;;8.35;0.68;;;6.60;99.90;;;;;;6309586;22;20011;-74
2022/01/09 00:18:14;;;;;;;8.57;0.98;;;6.60;99.90;;;;;;6309266;22;20078;-74
2022/01/09 00:20:40;;;;;;;13.27;0.50;;;6.60;99.90;;;;;;6309194;22;20083;-74
2022/01/09 00:23:05;;;;;;;15.10;1.00;;;6.60;99.90;;;;;;6309064;22;20307;-74
2022/01/09 00:25:31;;;;;;;20.77;2.55;;;6.70;99.90;;;;;;6308909;22;19996;-74
2022/01/09 00:27:56;;;;;;;20.48;1.08;;;6.60;99.90;;;;;;6308744;22;19995;-73
2022/01/09 00:30:23;;;;;;;32.90;2.47;;;6.70;99.90;;;;;;6308803;22;20437;-73
2022/01/09 00:32:53;;;;;;;15.95;1.13;;;6.70;99.90;;;;;;6281580;22;20430;-73
2022/01/09 00:35:19;;;;;;;10.70;0.75;;;6.70;99.90;;;;;;6308879;22;20000;-73
2022/01/09 00:37:46;;;;;;;32.72;1.73;;;6.60;99.90;;;;;;6308932;22;20094;-73
2022/01/09 00:40:12;;;;;;;21.88;1.83;;;6.60;99.90;;;;;;6308778;22;20327;-72
2022/01/09 00:42:39;;;;;;;24.10;1.35;;;6.60;99.90;;;;;;6281561;22;20007;-74
2022/01/09 00:45:05;;;;;;;23.25;1.98;;;6.60;99.90;;;;;;6281472;22;20006;-73
2022/01/09 00:47:31;;;;;;;13.50;1.25;;;6.60;99.90;;;;;;6308515;22;19999;-73
2022/01/09 00:49:58;;;;;;;22.90;2.28;;;6.70;99.90;;;;;;6308362;22;20003;-73
2022/01/09 00:52:23;;;;;;;14.32;1.10;;;6.70;99.90;;;;;;6308502;22;20025;-73
2022/01/09 00:54:49;;;;;;;22.58;2.03;;;6.70;99.90;;;;;;6309156;22;20442;-73
2022/01/09 00:57:14;;;;;;;28.17;2.10;;;6.70;99.90;;;;;;6308912;22;20031;-73
2022/01/09 00:59:40;;;;;;;25.40;2.40;;;6.70;99.90;;;;;;6280717;22;20007;-73
2022/01/09 01:02:05;;;;;;;19.90;1.30;;;6.70;99.90;;;;;;6309248;22;19999;-73
2022/01/09 01:04:31;;;;;;;34.83;2.22;;;6.70;99.90;;;;;;6308333;22;20003;-73
2022/01/09 01:06:57;;;;;;;18.67;0.70;;;6.70;99.90;;;;;;6308969;22;19999;-73
2022/01/09 01:09:24;;;;;;;23.80;1.27;;;6.70;99.90;;;;;;6308563;22;20003;-73
2022/01/09 01:11:51;;;;;;;24.45;2.42;;;6.70;99.90;;;;;;6308695;22;19999;-73
2022/01/09 01:14:16;;;;;;;34.65;2.40;;;6.70;99.90;;;;;;6281096;22;20090;-74
2022/01/09 01:16:42;;;;;;;26.73;1.50;;;6.70;99.90;;;;;;6308306;22;20028;-74
2022/01/09 01:19:10;;;;;;;15.05;1.33;;;6.70;99.90;;;;;;6308414;22;19999;-74
2022/01/09 01:21:36;;;;;;;21.10;1.17;;;6.70;99.90;;;;;;6281343;22;19996;-74
2022/01/09 01:24:02;;;;;;;19.85;2.13;;;6.70;99.90;;;;;;6281069;22;20003;-74
2022/01/09 01:26:27;;;;;;;28.55;2.90;;;6.80;99.90;;;;;;6281306;22;20027;-74
2022/01/09 01:28:53;;;;;;;18.67;1.25;;;6.70;99.90;;;;;;6308506;22;19999;-74
2022/01/09 01:31:18;;;;;;;22.77;1.13;;;6.70;99.90;;;;;;6308140;22;20007;-74
2022/01/09 01:33:44;;;;;;;18.20;1.55;;;6.70;99.90;;;;;;6308559;22;20083;-74
2022/01/09 01:36:09;;;;;;;9.65;0.20;;;6.70;99.90;;;;;;6308567;22;20097;-74
2022/01/09 01:38:35;;;;;;;28.30;1.23;;;6.70;99.90;;;;;;6308396;22;19999;-74
2022/01/09 01:41:00;;;;;;;26.05;1.20;;;6.70;99.90;;;;;;6280686;22;19999;-74
2022/01/09 01:43:27;;;;;;;17.60;2.53;;;6.70;99.90;;;;;;6308414;22;20078;-74
2022/01/09 01:45:52;;;;;;;20.15;0.80;;;6.70;99.90;;;;;;6308251;22;20070;-74
2022/01/09 01:48:18;;;;;;;17.02;1.58;;;6.70;99.90;;;;;;6308184;22;20080;-73
2022/01/09 01:50:46;;;;;;;23.45;1.13;;;6.70;99.90;;;;;;6308576;22;20006;-73
2022/01/09 01:53:16;;;;;;;29.60;2.10;;;6.70;99.90;;;;;;6308112;22;20023;-73
2022/01/09 01:55:42;;;;;;;22.55;0.90;;;6.70;99.90;;;;;;6308138;22;20007;-73
2022/01/09 01:58:13;;;;;;;16.30;1.00;;;6.70;99.90;;;;;;6308267;22;20097;-73
2022/01/09 02:00:40;;;;;;;11.68;1.35;;;6.60;99.90;;;;;;6308216;22;20007;-73
2022/01/09 02:03:07;;;;;;;16.05;0.80;;;6.60;99.90;;;;;;6308423;22;20083;-74
2022/01/09 02:05:33;;;;;;;21.15;1.33;;;6.60;99.90;;;;;;6308153;22;19999;-74
2022/01/09 02:08:00;;;;;;;19.00;1.40;;;6.70;99.90;;;;;;6308011;22;20006;-74
2022/01/09 02:10:26;;;;;;;25.65;2.55;;;6.70;99.90;;;;;;6308437;22;19995;-74
2022/01/09 02:12:55;;;;;;;20.20;2.28;;;6.70;99.90;;;;;;6308762;22;20030;-73
2022/01/09 02:15:43;;;;;;;24.85;2.83;;;6.70;99.90;;;;;;6307961;22;20049;-73
2022/01/09 02:18:15;;;;;;;18.15;1.27;;;6.70;99.90;;;;;;6281026;22;20011;-73
2022/01/09 02:20:41;;;;;;;10.52;0.80;;;6.70;99.90;;;;;;6308012;22;20063;-73
2022/01/09 02:23:08;;;;;;;15.95;0.52;;;6.70;99.90;;;;;;6307710;22;20002;-73
2022/01/09 02:25:35;;;;;;;23.50;0.90;;;6.60;99.90;;;;;;6307936;22;19999;-73
2022/01/09 02:28:01;;;;;;;20.00;2.25;;;6.70;99.90;;;;;;6308410;22;19995;-73
2022/01/09 02:30:27;;;;;;;15.07;0.68;;;6.70;99.90;;;;;;6307829;22;20022;-73
2022/01/09 02:32:52;;;;;;;11.60;1.27;;;6.80;99.90;;;;;;6308225;22;19995;-73
2022/01/09 02:35:23;;;;;;;15.50;1.27;;;6.70;99.90;;;;;;6307708;22;20358;-73
2022/01/09 02:37:48;;;;;;;12.27;1.00;;;6.80;99.90;;;;;;6281340;22;20078;-73
2022/01/09 02:40:14;;;;;;;11.63;1.10;;;6.80;99.90;;;;;;6308178;22;20014;-74
2022/01/09 02:42:39;;;;;;;16.77;1.48;;;6.80;99.90;;;;;;6308337;22;19999;-74
2022/01/09 02:45:05;;;;;;;12.73;0.55;;;6.80;99.90;;;;;;6281050;22;20087;-73
2022/01/09 02:47:33;;;;;;;32.22;1.52;;;6.80;99.90;;;;;;6308271;22;20010;-73
2022/01/09 02:50:09;;;;;;;20.15;0.93;;;6.80;99.90;;;;;;6308665;22;20014;-73
2022/01/09 02:52:48;;;;;;;12.25;0.98;;;6.70;99.90;;;;;;6280950;22;20064;-74
2022/01/09 02:55:14;;;;;;;17.05;2.85;;;6.70;99.90;;;;;;6280941;22;20419;-74
2022/01/09 02:57:41;;;;;;;13.63;1.70;;;6.80;99.90;;;;;;6307506;22;20034;-73
2022/01/09 03:00:14;;;;;;;19.52;1.42;;;6.70;99.90;;;;;;6307928;22;19999;-73
2022/01/09 03:02:40;;;;;;;13.13;0.82;;;6.70;99.90;;;;;;6281453;22;19999;-73
2022/01/09 03:05:07;;;;;;;10.40;0.80;;;6.60;99.90;;;;;;6309875;22;19995;-73
2022/01/09 03:07:32;;;;;;;11.90;0.90;;;6.70;99.90;;;;;;6282398;22;20376;-73
2022/01/09 03:09:58;;;;;;;10.43;0.98;;;6.70;99.90;;;;;;6309732;22;20003;-73
2022/01/09 03:12:24;;;;;;;17.50;1.85;;;6.60;99.90;;;;;;6309781;22;20003;-73
2022/01/09 03:14:50;;;;;;;19.58;1.35;;;6.70;99.90;;;;;;6310158;22;20426;-73
2022/01/09 03:17:15;;;;;;;16.75;1.17;;;6.60;99.90;;;;;;6310059;22;20101;-73
2022/01/09 03:19:41;;;;;;;10.02;1.85;;;6.60;99.90;;;;;;6310120;22;20395;-73
2022/01/09 03:22:06;;;;;;;12.15;1.30;;;6.60;99.90;;;;;;6282394;22;19999;-73
2022/01/09 03:24:32;;;;;;;12.02;1.95;;;6.60;99.90;;;;;;6310065;22;19996;-73
2022/01/09 03:26:58;;;;;;;16.00;1.23;;;6.60;99.90;;;;;;6309590;22;20060;-73
2022/01/09 03:29:23;;;;;;;16.08;1.20;;;6.50;99.90;;;;;;6309686;22;20053;-73
2022/01/09 03:31:49;;;;;;;12.27;0.55;;;6.50;99.90;;;;;;6309597;22;20074;-73
2022/01/09 03:34:14;;;;;;;13.32;1.48;;;6.50;99.90;;;;;;6309689;22;20088;-74
2022/01/09 03:36:40;;;;;;;14.15;1.17;;;6.50;99.90;;;;;;6309649;22;20070;-74
2022/01/09 03:39:05;;;;;;;10.20;1.50;;;6.50;99.90;;;;;;6309320;22;19995;-74
2022/01/09 03:41:31;;;;;;;14.93;0.85;;;6.40;99.90;;;;;;6309321;22;19996;-74
2022/01/09 03:43:56;;;;;;;8.05;0.45;;;6.40;99.90;;;;;;6282064;22;20000;-74
2022/01/09 03:46:22;;;;;;;5.55;0.95;;;6.40;99.90;;;;;;6282350;22;20003;-74
2022/01/09 03:48:47;;;;;;;13.13;1.80;;;6.40;99.90;;;;;;6309233;22;20007;-74
2022/01/09 03:51:13;;;;;;;16.90;2.15;;;6.40;99.90;;;;;;6282177;22;20010;-74
2022/01/09 03:53:39;;;;;;;11.55;0.60;;;6.40;99.90;;;;;;6282108;22;20118;-74
2022/01/09 03:56:06;;;;;;;9.48;1.00;;;6.40;99.90;;;;;;6309293;22;20053;-73
2022/01/09 03:58:31;;;;;;;11.18;0.75;;;6.40;99.90;;;;;;6282140;22;20428;-74
2022/01/09 04:00:57;;;;;;;5.25;0.28;;;6.30;99.90;;;;;;6282001;22;19999;-73
2022/01/09 04:03:22;;;;;;;12.43;0.70;;;6.30;99.90;;;;;;6309870;22;20006;-73
2022/01/09 04:05:48;;;;;;;10.27;0.55;;;6.30;99.90;;;;;;6281735;22;20312;-73
2022/01/09 04:08:13;;;;;;;15.63;0.90;;;6.20;99.90;;;;;;6309302;22;20000;-74
2022/01/09 04:10:42;;;;;;;13.55;0.30;;;6.20;99.90;;;;;;6308734;22;20027;-74
2022/01/09 04:13:12;;;;;;;12.15;0.55;;;6.10;99.90;;;;;;6309520;22;19999;-74
2022/01/09 04:15:38;;;;;;;15.65;0.60;;;6.20;99.90;;;;;;6281594;22;20019;-74
2022/01/09 04:18:04;;;;;;;12.52;1.75;;;6.20;99.90;;;;;;6281376;22;20003;-74
2022/01/09 04:20:31;;;;;;;11.25;0.25;;;6.10;99.90;;;;;;6281396;22;20053;-74
2022/01/09 04:22:58;;;;;;;12.48;0.73;;;6.10;99.90;;;;;;6281335;22;20003;-74
2022/01/09 04:25:24;;;;;;;4.32;0.77;;;6.10;99.90;;;;;;6308740;22;20002;-74
2022/01/09 04:27:50;;;;;;;10.05;1.15;;;6.10;99.90;;;;;;6281349;22;20019;-74
2022/01/09 04:30:16;;;;;;;15.63;0.73;;;6.10;99.90;;;;;;6308766;22;20006;-74
2022/01/09 04:32:43;;;;;;;13.45;1.20;;;6.10;99.90;;;;;;6308675;22;20007;-73
2022/01/09 04:35:09;;;;;;;11.48;1.00;;;6.10;99.90;;;;;;6308511;22;20010;-74
2022/01/09 04:37:36;;;;;;;8.00;0.05;;;6.10;99.90;;;;;;6309281;22;20026;-74
2022/01/09 04:40:05;;;;;;;10.05;0.20;;;6.00;99.90;;;;;;6308633;22;20002;-74
2022/01/09 04:42:45;;;;;;;10.63;0.73;;;6.10;99.90;;;;;;6308361;22;19995;-74
2022/01/09 04:45:14;;;;;;;12.32;1.10;;;6.00;99.90;;;;;;6309259;22;20002;-73
2022/01/09 04:47:46;;;;;;;9.10;0.95;;;6.00;99.90;;;;;;6280936;22;20010;-73
2022/01/09 04:50:16;;;;;;;12.88;0.60;;;6.00;99.90;;;;;;6281150;22;20060;-73
2022/01/09 04:52:43;;;;;;;14.38;0.50;;;6.00;99.90;;;;;;6281370;22;20342;-73
2022/01/09 04:55:09;;;;;;;6.82;0.60;;;6.00;99.90;;;;;;6281123;22;20007;-73
2022/01/09 04:57:34;;;;;;;19.55;1.20;;;5.90;99.90;;;;;;6280828;22;20068;-73
2022/01/09 05:00:00;;;;;;;11.50;0.70;;;5.90;99.90;;;;;;6309023;22;20004;-73
2022/01/09 05:02:25;;;;;;;6.07;0.20;;;5.90;99.90;;;;;;6308519;22;20003;-73
2022/01/09 05:04:51;;;;;;;9.45;0.08;;;5.90;99.90;;;;;;6308708;22;20472;-73
2022/01/09 05:07:17;;;;;;;15.48;0.30;;;5.90;99.90;;;;;;6308265;22;20010;-73
2022/01/09 05:09:45;;;;;;;14.60;1.05;;;5.90;99.90;;;;;;6308359;22;20010;-73
2022/01/09 05:12:11;;;;;;;5.60;0.10;;;5.90;99.90;;;;;;6280668;22;20010;-73
2022/01/09 05:14:37;;;;;;;8.88;0.10;;;5.90;99.90;;;;;;6308340;22;19999;-73
2022/01/09 05:17:02;;;;;;;15.13;1.27;;;5.90;99.90;;;;;;6308140;22;20003;-74
2022/01/09 05:19:29;;;;;;;13.20;0.73;;;6.00;99.90;;;;;;6280708;22;20008;-74
2022/01/09 05:21:56;;;;;;;5.45;0.60;;;6.00;99.90;;;;;;6280697;22;20086;-73
2022/01/09 05:24:22;;;;;;;8.13;1.50;;;6.00;99.90;;;;;;6307632;22;19999;-73
2022/01/09 05:26:48;;;;;;;12.35;0.52;;;6.00;99.90;;;;;;6307988;22;20014;-73
2022/01/09 05:29:13;;;;;;;14.52;0.68;;;6.00;99.90;;;;;;6280574;22;20033;-74
2022/01/09 05:31:39;;;;;;;3.42;0.38;;;6.00;99.90;;;;;;6280710;22;20052;-74
2022/01/09 05:34:05;;;;;;;12.18;1.77;;;6.00;99.90;;;;;;6308250;22;20003;-73
2022/01/09 05:36:31;;;;;;;4.70;0.15;;;6.00;99.90;;;;;;6307997;22;20078;-73
2022/01/09 05:38:57;;;;;;;4.88;0.47;;;5.90;99.90;;;;;;6280783;22;20004;-74
2022/01/09 05:41:23;;;;;;;7.78;0.20;;;5.90;99.90;;;;;;6308075;22;19995;-73
2022/01/09 05:43:48;;;;;;;9.32;0.30;;;5.80;99.90;;;;;;6280857;22;20031;-73
2022/01/09 05:46:14;;;;;;;13.32;0.55;;;5.70;99.90;;;;;;6308010;22;20003;-73
2022/01/09 05:48:39;;;;;;;13.57;1.35;;;5.60;99.90;;;;;;6307885;22;20014;-73
2022/01/09 05:51:05;;;;;;;12.13;1.38;;;5.40;99.90;;;;;;6280752;22;20030;-73
2022/01/09 05:53:31;;;;;;;12.13;0.68;;;5.40;99.90;;;;;;6307805;22;20093;-74
2022/01/09 05:55:56;;;;;;;9.70;0.50;;;5.40;99.90;;;;;;6308799;22;19999;-74
2022/01/09 05:58:23;;;;;;;8.68;0.10;;;5.40;99.90;;;;;;6308004;22;20014;-74
2022/01/09 06:00:48;;;;;;;9.25;0.55;;;5.40;99.90;;;;;;6280362;22;20006;-74
2022/01/09 06:03:14;;;;;;;3.88;0.20;;;5.40;99.90;;;;;;6308708;22;20000;-73
2022/01/09 06:05:39;;;;;;;5.70;0.28;;;5.40;99.90;;;;;;6308509;22;20005;-73
2022/01/09 06:08:05;;;;;;;13.52;1.25;;;5.40;99.90;;;;;;6308003;22;20072;-73
2022/01/09 06:10:31;;;;;;;9.45;0.57;;;5.40;99.90;;;;;;6280249;22;19999;-73
2022/01/09 06:12:59;;;;;;;6.75;0.57;;;5.30;99.90;;;;;;6308468;22;20361;-74
2022/01/09 06:15:25;;;;;;;10.07;0.10;;;5.30;99.90;;;;;;6308384;22;20007;-74
2022/01/09 06:17:50;;;;;;;7.18;1.52;;;5.20;99.90;;;;;;6307624;22;20308;-73
2022/01/09 06:20:16;;;;;;;6.28;1.10;;;5.20;99.90;;;;;;6308059;22;20454;-73
2022/01/09 06:22:43;;;;;;;10.82;0.63;;;5.20;99.90;;;;;;6307815;22;20006;-73
2022/01/09 06:25:09;;;;;;;6.55;0.50;;;5.30;99.90;;;;;;6307921;22;20096;-74
2022/01/09 06:27:35;;;;;;;9.55;1.00;;;5.30;99.90;;;;;;6307760;22;20003;-74
2022/01/09 06:30:05;;;;;;;11.23;0.10;;;5.30;99.90;;;;;;6307886;22;20334;-73
2022/01/09 06:32:31;;;;;;;16.50;0.45;;;5.20;99.90;;;;;;6307670;22;20007;-73
2022/01/09 06:34:57;;;;;;;5.40;0.38;;;5.20;99.90;;;;;;6307701;22;20074;-74
2022/01/09 06:37:22;;;;;;;5.68;0.20;;;5.20;99.90;;;;;;6309436;22;19999;-73
2022/01/09 06:39:48;;;;;;;7.63;0.57;;;5.20;99.90;;;;;;6309759;22;20339;-74
2022/01/09 06:42:13;;;;;;;8.82;0.30;;;5.20;99.90;;;;;;6309813;22;19996;-73
2022/01/09 06:44:39;;;;;;;5.90;0.32;;;5.20;99.90;;;;;;6309667;22;19995;-73
2022/01/09 06:47:05;;;;;;;1.60;0.00;;;5.20;99.90;;;;;;6282611;22;20003;-73
2022/01/09 06:49:30;;;;;;;4.68;0.28;;;5.20;99.90;;;;;;6309562;22;19999;-74
2022/01/09 06:51:56;;;;;;;8.52;0.45;;;5.30;99.90;;;;;;6309563;22;20010;-73
2022/01/09 06:54:22;;;;;;;7.57;0.15;;;5.30;99.90;;;;;;6282284;22;20003;-73
2022/01/09 06:56:48;;;;;;;2.65;0.00;;;5.30;99.90;;;;;;6309520;22;20075;-74
2022/01/09 06:59:14;;;;;;;4.10;0.80;;;5.30;99.90;;;;;;6281956;22;20014;-73
2022/01/09 07:01:40;;;;;;;6.68;0.43;;;5.30;99.90;;;;;;6282324;22;20330;-74
2022/01/09 07:04:05;;;;;;;4.80;0.00;;;5.20;99.90;;;;;;6282286;22;20000;-74
2022/01/09 07:06:31;;;;;;;5.30;0.20;;;5.10;99.90;;;;;;6309467;22;20006;-73
2022/01/09 07:08:57;;;;;;;7.78;0.57;;;5.10;99.90;;;;;;6309649;22;19999;-73
2022/01/09 07:11:22;;;;;;;6.57;0.25;;;5.00;99.90;;;;;;6309874;22;20007;-73
2022/01/09 07:13:48;;;;;;;9.43;0.10;;;5.00;99.90;;;;;;6309494;22;20007;-73
2022/01/09 07:16:13;;;;;;;7.55;0.10;;;5.00;99.90;;;;;;6309460;22;20000;-73
2022/01/09 07:18:39;;;;;;;7.03;0.47;;;5.00;99.90;;;;;;6282162;22;20007;-73
2022/01/09 07:21:04;;;;;;;9.13;0.68;;;4.90;99.90;;;;;;6282204;22;20003;-73
2022/01/09 07:23:31;;;;;;;8.70;0.47;;;4.80;99.90;;;;;;6309475;22;20475;-73
2022/01/09 07:25:57;;;;;;;5.10;0.50;;;4.80;99.90;;;;;;6309266;22;19995;-72
2022/01/09 07:28:22;;;;;;;2.58;0.38;;;4.80;99.90;;;;;;6309262;22;19995;-71
2022/01/09 07:30:48;;;;;;;5.43;0.10;;;4.80;99.90;;;;;;6309341;22;20003;-71
2022/01/09 07:33:13;;;;;;;3.90;0.20;;;4.80;99.90;;;;;;6281759;22;19996;-73
2022/01/09 07:35:39;;;;;;;3.40;0.32;;;4.90;99.90;;;;;;6309325;22;20378;-72
2022/01/09 07:38:05;;;;;;;3.90;0.15;;;4.80;99.90;;;;;;6309076;22;20074;-72
2022/01/09 07:40:30;;;;;;;5.45;0.77;;;4.80;99.90;;;;;;6309080;22;19996;-72
2022/01/09 07:42:56;;;;;;;4.78;0.17;;;4.90;99.90;;;;;;6281821;22;20002;-72
2022/01/09 07:45:24;;;;;;;3.92;0.20;;;4.90;99.90;;;;;;6281766;22;20316;-72
2022/01/09 07:47:50;;;;;;;3.70;0.10;;;5.00;99.90;;;;;;6281317;22;20007;-72
2022/01/09 07:50:16;;;;;;;19.85;0.82;;;5.00;99.90;;;;;;6309095;22;20057;-72
2022/01/09 07:52:42;;;;;;;12.40;0.10;;;5.10;99.90;;;;;;6309124;22;20465;-72
2022/01/09 07:55:08;;;;;;;7.70;0.52;;;5.10;99.90;;;;;;6310388;22;20029;-72
2022/01/09 07:57:34;;;;;;;9.43;0.20;;;5.20;99.90;;;;;;6309436;22;20003;-72
2022/01/09 08:00:03;;;;;;;7.25;0.20;;;5.10;99.90;;;;;;6281399;22;20053;-72
2022/01/09 08:02:29;;;;;;;6.28;0.20;;;5.10;99.90;;;;;;6281607;22;20060;-72
2022/01/09 08:04:54;;;;;;;5.72;0.10;;;5.10;99.90;;;;;;6308756;22;20003;-72
2022/01/09 08:07:20;;;;;;;9.93;0.98;;;5.10;99.90;;;;;;6308876;22;20007;-72
2022/01/09 08:09:46;;;;;;;10.18;0.30;;;5.00;99.90;;;;;;6281410;22;20324;-72
2022/01/09 08:12:14;;;;;;;6.95;0.30;;;5.00;99.90;;;;;;6308846;22;20003;-72
2022/01/09 08:14:41;;;;;;;1.52;0.10;;;5.00;99.90;;;;;;6281215;22;19999;-72
2022/01/09 08:17:06;;;;;;;5.50;0.30;;;5.00;99.90;;;;;;6308496;22;20449;-71
2022/01/09 08:19:32;;;;;;;3.53;0.00;;;5.00;99.90;;;;;;6308353;22;19995;-71
2022/01/09 08:21:58;;;;;;;11.30;1.08;;;5.00;99.90;;;;;;6308650;22;19999;-71
2022/01/09 08:24:24;;;;;;;7.60;0.40;;;4.90;99.90;;;;;;6308690;22;20045;-71
2022/01/09 08:26:50;;;;;;;9.50;0.10;;;4.90;99.90;;;;;;6281159;22;20003;-71
2022/01/09 08:29:16;;;;;;;5.32;0.10;;;4.80;99.90;;;;;;6308458;22;20052;-71
2022/01/09 08:31:42;;;;;;;8.85;0.17;;;5.00;99.90;;;;;;6308475;22;20476;-71
2022/01/09 08:34:08;;;;;;;11.60;0.10;;;5.00;99.90;;;;;;6308539;22;20074;-71
2022/01/09 08:36:34;;;;;;;4.78;0.17;;;5.10;99.90;;;;;;6281095;22;19999;-72
2022/01/09 08:39:00;;;;;;;8.20;0.30;;;5.10;99.90;;;;;;6280859;22;20006;-72
2022/01/09 08:41:25;;;;;;;7.97;0.00;;;5.20;99.90;;;;;;6308362;22;20066;-72
2022/01/09 08:43:51;;;;;;;6.43;0.00;;;5.40;99.90;;;;;;6281040;22;20003;-72
2022/01/09 08:46:16;;;;;;;5.75;0.38;;;5.40;99.90;;;;;;6308829;22;20068;-72
2022/01/09 08:48:42;;;;;;;11.07;0.30;;;5.20;99.90;;;;;;6281330;22;20381;-72
2022/01/09 08:51:08;;;;;;;7.20;0.28;;;5.70;99.90;;;;;;6308475;22;20010;-72
2022/01/09 08:53:35;;;;;;;7.07;0.60;;;5.70;99.90;;;;;;6309257;22;20411;-72
2022/01/09 08:56:03;;;;;;;9.98;0.10;;;5.70;99.90;;;;;;6308698;22;19999;-72
2022/01/09 08:58:30;;;;;;;5.45;0.22;;;5.60;99.90;;;;;;6280882;22;20011;-72
2022/01/09 09:00:55;;;;;;;8.10;0.38;;;5.60;99.90;;;;;;6308065;22;19999;-72
2022/01/09 09:03:23;;;;;;;1.90;0.10;;;5.50;99.90;;;;;;6308225;22;20363;-72
2022/01/09 09:05:48;;;;;;;11.80;1.05;;;5.50;99.90;;;;;;6308395;22;20076;-72
2022/01/09 09:08:14;;;;;;;7.30;0.10;;;5.50;99.90;;;;;;6308541;22;19999;-71
2022/01/09 09:10:40;;;;;;;10.40;0.85;;;5.60;99.90;;;;;;6281094;22;20427;-72
2022/01/09 09:13:05;;;;;;;5.70;0.13;;;5.60;99.90;;;;;;6308775;22;20027;-72
2022/01/09 09:15:31;;;;;;;5.60;0.70;;;5.60;99.90;;;;;;6309050;22;20009;-72
2022/01/09 09:17:56;;;;;;;7.28;0.28;;;5.60;99.90;;;;;;6280946;22;20377;-72
2022/01/09 09:20:22;;;;;;;3.20;0.00;;;5.60;99.90;;;;;;6308091;22;20003;-72
2022/01/09 09:22:48;;;;;;;8.60;0.35;;;5.60;99.90;;;;;;6308327;22;20004;-72
2022/01/09 09:25:14;;;;;;;7.63;0.45;;;5.60;99.90;;;;;;6308583;22;20000;-72
2022/01/09 09:27:40;;;;;;;6.53;0.57;;;5.60;99.90;;;;;;6308944;22;20006;-72
2022/01/09 09:30:06;;;;;;;8.45;0.47;;;5.60;99.90;;;;;;6308464;22;20415;-72
2022/01/09 09:32:32;;;;;;;15.00;1.45;;;5.70;99.90;;;;;;6308101;22;20048;-72
2022/01/09 09:34:58;;;;;;;9.70;0.10;;;5.80;99.90;;;;;;6308054;22;20003;-71
2022/01/09 09:37:26;;;;;;;11.85;0.17;;;5.90;99.90;;;;;;6308118;22;20010;-71
2022/01/09 09:39:52;;;;;;;9.90;0.40;;;6.00;99.90;;;;;;6308068;22;20005;-72
2022/01/09 09:42:18;;;;;;;7.72;0.63;;;6.10;99.90;;;;;;6307952;22;20041;-71
2022/01/09 09:44:44;;;;;;;13.80;1.52;;;6.20;99.90;;;;;;6308272;22;20423;-71
2022/01/09 09:47:10;;;;;;;12.30;0.43;;;6.10;99.90;;;;;;6308445;22;20006;-71
2022/01/09 09:49:36;;;;;;;7.20;0.40;;;6.20;99.90;;;;;;6308902;22;20003;-72
2022/01/09 09:52:07;;;;;;;10.38;0.47;;;6.30;99.90;;;;;;6281153;22;20422;-71
2022/01/09 09:54:33;;;;;;;11.93;0.43;;;6.40;99.90;;;;;;6280779;22;20343;-71
2022/01/09 09:56:59;;;;;;;4.30;0.10;;;6.50;99.90;;;;;;6280623;22;20015;-71
2022/01/09 09:59:28;;;;;;;10.75;0.10;;;6.60;99.90;;;;;;6308362;22;20008;-71
2022/01/09 10:01:53;;;;;;;;;;;6.70;99.90;;;;;;6308387;22;20006;-72
2022/01/09 10:04:19;;;;;;;8.45;0.30;;;6.80;99.90;;;;;;6308087;22;19982;-71
2022/01/09 10:06:47;;;;;;;11.20;0.85;;;6.90;99.90;;;;;;6280601;22;20006;-71
2022/01/09 10:09:15;;;;;;;9.80;0.30;;;6.90;99.90;;;;;;6280433;22;20016;-71
2022/01/09 10:11:49;;;;;;;10.50;0.57;;;7.00;99.90;;;;;;6280689;22;20007;-71
2022/01/09 10:14:25;;;;;;;8.02;0.63;;;7.00;99.90;;;;;;6308414;22;20003;-71
2022/01/09 10:17:12;;;;;;;4.47;0.55;;;7.10;99.90;;;;;;6308307;22;20434;-71
2022/01/09 10:19:46;;;;;;;10.02;0.98;;;7.10;99.90;;;;;;6308302;22;20027;-71
2022/01/09 10:22:33;;;;;;;9.07;0.25;;;7.20;99.90;;;;;;6308444;22;20002;-71
2022/01/09 10:25:21;;;;;;;12.05;1.05;;;7.20;99.90;;;;;;6281090;22;20003;-71
2022/01/09 10:27:48;;;;;;;6.32;0.50;;;7.30;99.90;;;;;;6308909;22;20381;-71
2022/01/09 10:30:15;;;;;;;3.92;0.25;;;7.40;99.90;;;;;;6308210;22;20468;-71
2022/01/09 10:32:40;;;;;;;3.97;0.17;;;7.30;99.90;;;;;;6307967;22;20347;-72
2022/01/09 10:35:15;;;;;;;4.57;0.00;;;7.40;99.90;;;;;;6308372;22;20000;-71
2022/01/09 10:37:43;;;;;;;11.27;0.65;;;7.40;99.90;;;;;;6307680;22;20352;-71
2022/01/09 10:40:17;;;;;;;3.50;0.77;;;7.30;99.90;;;;;;6307969;22;20053;-71
2022/01/09 10:42:43;;;;;;;4.40;0.25;;;7.10;99.90;;;;;;6308138;22;20444;-71
2022/01/09 10:45:15;;;;;;;6.10;0.52;;;6.90;99.90;;;;;;6308153;22;20007;-71
2022/01/09 10:47:41;;;;;;;4.32;0.00;;;6.90;99.90;;;;;;6280669;22;20004;-71
2022/01/09 10:50:07;;;;;;;4.95;0.00;;;6.90;99.90;;;;;;6307501;22;20042;-71
2022/01/09 10:52:41;;;;;;;8.02;0.28;;;6.80;99.90;;;;;;6280349;22;20052;-71
2022/01/09 10:55:08;;;;;;;0.22;0.10;;;6.70;99.90;;;;;;6280777;22;20007;-71
2022/01/09 10:57:37;;;;;;;6.57;0.05;;;6.60;99.90;;;;;;6307796;22;20003;-71
2022/01/09 11:00:08;;;;;;;3.42;0.30;;;6.50;99.90;;;;;;6309053;22;20010;-71
2022/01/09 11:02:33;;;;;;;3.38;0.10;;;6.40;99.90;;;;;;6308613;22;20304;-71
2022/01/09 11:04:59;;;;;;;6.30;0.52;;;6.40;99.90;;;;;;6280601;22;20026;-71
2022/01/09 11:07:25;;;;;;;1.92;0.17;;;6.40;99.90;;;;;;6307771;22;19999;-71
2022/01/09 11:09:52;;;;;;;1.35;0.00;;;6.30;99.90;;;;;;6308208;22;20380;-71
2022/01/09 11:12:20;;;;;;;10.93;0.20;;;6.30;99.90;;;;;;6307982;22;20023;-71
2022/01/09 11:14:49;;;;;;;3.58;0.00;;;6.30;99.90;;;;;;6307937;22;20003;-71
2022/01/09 11:17:16;;;;;;;3.00;0.38;;;6.20;99.90;;;;;;6307700;22;20027;-71
2022/01/09 11:19:42;;;;;;;7.32;0.55;;;6.20;99.90;;;;;;6308000;22;20010;-71
2022/01/09 11:22:12;;;;;;;1.55;0.00;;;6.20;99.90;;;;;;6307665;22;19996;-71
2022/01/09 11:25:05;;;;;;;4.97;0.00;;;6.20;99.90;;;;;;6309348;22;19995;-71
2022/01/09 11:27:36;;;;;;;3.28;0.20;;;6.20;99.90;;;;;;6309208;22;20007;-71
2022/01/09 11:30:14;;;;;;;1.83;0.10;;;6.20;99.90;;;;;;6309205;22;20078;-71
2022/01/09 11:33:33;;;;;;;2.03;0.00;;;6.40;99.90;;;;;;6309750;22;20007;-71
2022/01/09 11:36:08;;;;;;;5.53;0.32;;;6.60;99.90;;;;;;6184625;23;20009;-71
2022/01/09 11:39:02;;;;;;;7.47;0.65;;;6.90;99.90;;;;;;6291045;22;20003;-71
2022/01/09 11:41:30;;;;;;;7.53;0.28;;;7.10;99.90;;;;;;6309144;22;20049;-71
2022/01/09 11:44:00;;;;;;;7.28;0.00;;;7.20;99.90;;;;;;6308917;22;19995;-71
2022/01/09 11:46:28;;;;;;;8.93;0.22;;;7.40;99.90;;;;;;6282032;22;20033;-71
2022/01/09 11:48:54;;;;;;;7.70;0.67;;;7.60;99.90;;;;;;6282211;22;20028;-71
2022/01/09 11:51:25;;;;;;;5.18;0.10;;;7.70;99.90;;;;;;6309886;22;20030;-71
2022/01/09 11:53:55;;;;;;;3.83;0.20;;;7.70;99.90;;;;;;6309681;22;20003;-71
2022/01/09 11:56:55;;;;;;;6.93;0.15;;;7.80;99.90;;;;;;6309712;22;20003;-71
2022/01/09 11:59:28;;;;;;;6.22;0.90;;;7.80;99.90;;;;;;6281701;22;20011;-71
2022/01/09 12:02:00;;;;;;;4.20;0.28;;;7.90;99.90;;;;;;6309421;22;20000;-71
2022/01/09 12:04:35;;;;;;;9.50;0.32;;;8.10;99.90;;;;;;6309477;22;20053;-72
2022/01/09 12:07:07;;;;;;;12.18;0.98;;;8.20;99.90;;;;;;6309743;22;20038;-72
2022/01/09 12:09:40;;;;;;;7.65;0.20;;;8.40;99.90;;;;;;6309534;22;20445;-71
2022/01/09 12:12:23;;;;;;;12.75;0.47;;;8.40;99.90;;;;;;6309407;22;20438;-71
2022/01/09 12:14:54;;;;;;;3.67;0.28;;;8.60;99.90;;;;;;6281928;22;20011;-72
2022/01/09 12:17:28;;;;;;;6.80;0.00;;;8.50;99.90;;;;;;6309050;22;20005;-71
2022/01/09 12:19:54;;;;;;;2.70;0.10;;;8.50;99.90;;;;;;6282143;22;19999;-71
2022/01/09 12:23:01;;;;;;;5.28;0.40;;;8.50;99.90;;;;;;6281731;22;20006;-71
2022/01/09 12:25:28;;;;;;;5.75;0.30;;;8.40;99.90;;;;;;6248460;22;20004;-72
2022/01/09 12:28:08;;;;;;;10.45;0.45;;;8.60;99.90;;;;;;6309360;22;20490;-71
2022/01/09 12:30:38;;;;;;;4.95;0.68;;;8.80;99.90;;;;;;6308972;22;20316;-71
2022/01/09 12:33:09;;;;;;;9.90;0.70;;;8.90;99.90;;;;;;6309784;22;20006;-71
2022/01/09 12:35:40;;;;;;;14.82;0.75;;;8.90;99.90;;;;;;6308612;22;20009;-71
2022/01/09 12:38:09;;;;;;;8.35;0.52;;;8.90;99.90;;;;;;6309249;22;19999;-71
2022/01/09 12:40:36;;;;;;;6.97;0.22;;;8.80;99.90;;;;;;6309279;22;20327;-72
2022/01/09 12:43:03;;;;;;;4.32;0.47;;;8.90;99.90;;;;;;6281444;22;20075;-72
2022/01/09 12:45:35;;;;;;;9.60;0.90;;;8.80;99.90;;;;;;6309650;22;20049;-72
2022/01/09 12:48:03;;;;;;;8.45;0.47;;;8.70;99.90;;;;;;6281351;22;20458;-72
2022/01/09 12:50:31;;;;;;;11.50;0.43;;;8.50;99.90;;;;;;6308986;22;20027;-71
2022/01/09 12:53:20;;;;;;;7.88;0.38;;;8.30;99.90;;;;;;6309095;22;20042;-72
2022/01/09 12:56:01;;;;;;;8.45;0.40;;;8.30;99.90;;;;;;6308442;22;20034;-72